sensor_id;sensor_type;location;lat;lon;timestamp;P1;durP1;ratioP1;P2;durP2;ratioP2
49131;SDS011;35149;51.196;6.204;2024-01-15T00:00:35;45.75;;;25.05;;
49131;SDS011;35149;51.196;6.204;2024-01-15T00:03:04;43.13;;;23.08;;
49131;SDS011;35149;51.196;6.204;2024-01-15T00:05:33;41.35;;;23.42;;
49131;SDS011;35149;51.196;6.204;2024-01-15T00:08:00;41.40;;;24.42;;
49131;SDS011;35149;51.196;6.204;2024-01-15T00:10:29;42.35;;;23.45;;
49131;SDS011;35149;51.196;6.204;2024-01-15T00:12:57;40.65;;;23.60;;
49131;SDS011;35149;51.196;6.204;2024-01-15T00:15:26;42.78;;;24.65;;
49131;SDS011;35149;51.196;6.204;2024-01-15T00:17:57;43.40;;;24.27;;
49131;SDS011;35149;51.196;6.204;2024-01-15T00:20:35;38.95;;;21.85;;
49131;SDS011;35149;51.196;6.204;2024-01-15T00:23:02;37.83;;;21.95;;
49131;SDS011;35149;51.196;6.204;2024-01-15T00:25:31;36.10;;;18.67;;
49131;SDS011;35149;51.196;6.204;2024-01-15T00:28:03;35.60;;;19.30;;
49131;SDS011;35149;51.196;6.204;2024-01-15T00:30:30;36.25;;;19.05;;
49131;SDS011;35149;51.196;6.204;2024-01-15T00:32:57;35.42;;;19.02;;
49131;SDS011;35149;51.196;6.204;2024-01-15T00:35:26;38.20;;;19.38;;
49131;SDS011;35149;51.196;6.204;2024-01-15T00:37:55;36.88;;;18.88;;
49131;SDS011;35149;51.196;6.204;2024-01-15T00:40:25;35.88;;;18.15;;
49131;SDS011;35149;51.196;6.204;2024-01-15T00:42:54;35.47;;;18.25;;
49131;SDS011;35149;51.196;6.204;2024-01-15T00:45:24;36.83;;;19.50;;
49131;SDS011;35149;51.196;6.204;2024-01-15T00:47:59;35.15;;;20.00;;
49131;SDS011;35149;51.196;6.204;2024-01-15T00:50:28;35.17;;;18.83;;
49131;SDS011;35149;51.196;6.204;2024-01-15T00:52:58;36.85;;;18.67;;
49131;SDS011;35149;51.196;6.204;2024-01-15T00:55:24;36.90;;;17.90;;
49131;SDS011;35149;51.196;6.204;2024-01-15T00:57:51;32.50;;;18.05;;
49131;SDS011;35149;51.196;6.204;2024-01-15T01:00:20;37.00;;;19.83;;
49131;SDS011;35149;51.196;6.204;2024-01-15T01:02:47;32.40;;;17.02;;
49131;SDS011;35149;51.196;6.204;2024-01-15T01:05:16;33.53;;;17.90;;
49131;SDS011;35149;51.196;6.204;2024-01-15T01:07:48;38.90;;;18.73;;
49131;SDS011;35149;51.196;6.204;2024-01-15T01:10:21;30.38;;;16.67;;
49131;SDS011;35149;51.196;6.204;2024-01-15T01:12:48;26.88;;;16.58;;
49131;SDS011;35149;51.196;6.204;2024-01-15T01:15:18;33.70;;;17.75;;
49131;SDS011;35149;51.196;6.204;2024-01-15T01:17:47;26.17;;;15.60;;
49131;SDS011;35149;51.196;6.204;2024-01-15T01:20:15;28.50;;;15.57;;
49131;SDS011;35149;51.196;6.204;2024-01-15T01:22:48;27.75;;;15.68;;
49131;SDS011;35149;51.196;6.204;2024-01-15T01:25:15;29.92;;;16.15;;
49131;SDS011;35149;51.196;6.204;2024-01-15T01:27:42;26.42;;;14.93;;
49131;SDS011;35149;51.196;6.204;2024-01-15T01:30:14;23.92;;;15.35;;
49131;SDS011;35149;51.196;6.204;2024-01-15T01:32:40;25.38;;;15.50;;
49131;SDS011;35149;51.196;6.204;2024-01-15T01:35:12;29.40;;;15.85;;
49131;SDS011;35149;51.196;6.204;2024-01-15T01:37:39;28.13;;;16.13;;
49131;SDS011;35149;51.196;6.204;2024-01-15T01:40:09;26.17;;;16.08;;
49131;SDS011;35149;51.196;6.204;2024-01-15T01:42:36;29.45;;;17.00;;
49131;SDS011;35149;51.196;6.204;2024-01-15T01:45:05;27.15;;;15.80;;
49131;SDS011;35149;51.196;6.204;2024-01-15T01:47:34;29.20;;;16.65;;
49131;SDS011;35149;51.196;6.204;2024-01-15T01:50:01;27.65;;;16.38;;
49131;SDS011;35149;51.196;6.204;2024-01-15T01:52:29;29.70;;;16.25;;
49131;SDS011;35149;51.196;6.204;2024-01-15T01:55:07;30.20;;;16.10;;
49131;SDS011;35149;51.196;6.204;2024-01-15T01:57:46;27.10;;;16.58;;
49131;SDS011;35149;51.196;6.204;2024-01-15T02:00:15;28.13;;;14.63;;
49131;SDS011;35149;51.196;6.204;2024-01-15T02:02:47;32.78;;;17.00;;
49131;SDS011;35149;51.196;6.204;2024-01-15T02:05:14;29.25;;;16.48;;
49131;SDS011;35149;51.196;6.204;2024-01-15T02:07:46;26.55;;;15.40;;
49131;SDS011;35149;51.196;6.204;2024-01-15T02:10:13;24.77;;;15.23;;
49131;SDS011;35149;51.196;6.204;2024-01-15T02:12:44;25.30;;;14.43;;
49131;SDS011;35149;51.196;6.204;2024-01-15T02:15:11;25.00;;;14.63;;
49131;SDS011;35149;51.196;6.204;2024-01-15T02:18:01;22.83;;;13.35;;
49131;SDS011;35149;51.196;6.204;2024-01-15T02:20:37;18.65;;;12.55;;
49131;SDS011;35149;51.196;6.204;2024-01-15T02:23:11;19.35;;;12.45;;
49131;SDS011;35149;51.196;6.204;2024-01-15T02:25:42;20.00;;;12.57;;
49131;SDS011;35149;51.196;6.204;2024-01-15T02:28:23;20.45;;;12.63;;
49131;SDS011;35149;51.196;6.204;2024-01-15T02:30:52;20.40;;;11.93;;
49131;SDS011;35149;51.196;6.204;2024-01-15T02:33:24;20.83;;;13.52;;
49131;SDS011;35149;51.196;6.204;2024-01-15T02:35:51;21.55;;;12.85;;
49131;SDS011;35149;51.196;6.204;2024-01-15T02:38:20;22.27;;;12.85;;
49131;SDS011;35149;51.196;6.204;2024-01-15T02:40:47;19.65;;;12.57;;
49131;SDS011;35149;51.196;6.204;2024-01-15T02:43:13;20.40;;;12.75;;
49131;SDS011;35149;51.196;6.204;2024-01-15T02:45:48;18.45;;;12.50;;
49131;SDS011;35149;51.196;6.204;2024-01-15T02:48:18;19.60;;;11.60;;
49131;SDS011;35149;51.196;6.204;2024-01-15T02:50:47;18.88;;;12.02;;
49131;SDS011;35149;51.196;6.204;2024-01-15T02:53:13;20.75;;;12.90;;
49131;SDS011;35149;51.196;6.204;2024-01-15T02:55:46;22.63;;;13.13;;
49131;SDS011;35149;51.196;6.204;2024-01-15T02:58:13;20.40;;;13.88;;
49131;SDS011;35149;51.196;6.204;2024-01-15T03:00:46;21.30;;;14.23;;
49131;SDS011;35149;51.196;6.204;2024-01-15T03:03:20;18.55;;;13.88;;
49131;SDS011;35149;51.196;6.204;2024-01-15T03:05:52;22.77;;;13.15;;
49131;SDS011;35149;51.196;6.204;2024-01-15T03:08:21;20.50;;;12.73;;
49131;SDS011;35149;51.196;6.204;2024-01-15T03:10:53;16.98;;;9.85;;
49131;SDS011;35149;51.196;6.204;2024-01-15T03:13:24;21.80;;;13.53;;
49131;SDS011;35149;51.196;6.204;2024-01-15T03:15:53;17.33;;;11.98;;
49131;SDS011;35149;51.196;6.204;2024-01-15T03:18:22;21.55;;;12.20;;
49131;SDS011;35149;51.196;6.204;2024-01-15T03:20:49;21.30;;;12.48;;
49131;SDS011;35149;51.196;6.204;2024-01-15T03:23:18;18.65;;;11.98;;
49131;SDS011;35149;51.196;6.204;2024-01-15T03:25:45;17.38;;;11.63;;
49131;SDS011;35149;51.196;6.204;2024-01-15T03:28:11;17.77;;;13.30;;
49131;SDS011;35149;51.196;6.204;2024-01-15T03:30:41;19.27;;;12.75;;
49131;SDS011;35149;51.196;6.204;2024-01-15T03:33:07;21.73;;;12.35;;
49131;SDS011;35149;51.196;6.204;2024-01-15T03:35:35;18.25;;;12.60;;
49131;SDS011;35149;51.196;6.204;2024-01-15T03:38:01;20.38;;;13.25;;
49131;SDS011;35149;51.196;6.204;2024-01-15T03:40:28;20.63;;;12.88;;
49131;SDS011;35149;51.196;6.204;2024-01-15T03:42:59;19.15;;;11.70;;
49131;SDS011;35149;51.196;6.204;2024-01-15T03:45:29;16.75;;;10.73;;
49131;SDS011;35149;51.196;6.204;2024-01-15T03:47:58;17.67;;;11.05;;
49131;SDS011;35149;51.196;6.204;2024-01-15T03:50:25;14.65;;;10.05;;
49131;SDS011;35149;51.196;6.204;2024-01-15T03:52:52;18.63;;;10.27;;
49131;SDS011;35149;51.196;6.204;2024-01-15T03:55:18;17.88;;;10.77;;
49131;SDS011;35149;51.196;6.204;2024-01-15T03:57:45;14.98;;;10.85;;
49131;SDS011;35149;51.196;6.204;2024-01-15T04:00:14;14.73;;;9.48;;
49131;SDS011;35149;51.196;6.204;2024-01-15T04:02:47;15.05;;;10.18;;
49131;SDS011;35149;51.196;6.204;2024-01-15T04:05:16;17.13;;;10.40;;
49131;SDS011;35149;51.196;6.204;2024-01-15T04:07:43;15.45;;;10.25;;
49131;SDS011;35149;51.196;6.204;2024-01-15T04:10:09;17.63;;;10.73;;
49131;SDS011;35149;51.196;6.204;2024-01-15T04:12:50;13.45;;;9.82;;
49131;SDS011;35149;51.196;6.204;2024-01-15T04:15:19;16.63;;;10.00;;
49131;SDS011;35149;51.196;6.204;2024-01-15T04:17:46;19.55;;;11.35;;
49131;SDS011;35149;51.196;6.204;2024-01-15T04:20:14;16.15;;;10.00;;
49131;SDS011;35149;51.196;6.204;2024-01-15T04:22:47;15.02;;;10.05;;
49131;SDS011;35149;51.196;6.204;2024-01-15T04:25:16;15.75;;;9.48;;
49131;SDS011;35149;51.196;6.204;2024-01-15T04:27:47;17.30;;;9.67;;
49131;SDS011;35149;51.196;6.204;2024-01-15T04:30:14;12.77;;;8.75;;
49131;SDS011;35149;51.196;6.204;2024-01-15T04:32:41;14.10;;;9.23;;
49131;SDS011;35149;51.196;6.204;2024-01-15T04:35:11;15.73;;;9.57;;
49131;SDS011;35149;51.196;6.204;2024-01-15T04:37:41;14.68;;;10.48;;
49131;SDS011;35149;51.196;6.204;2024-01-15T04:40:08;13.27;;;8.93;;
49131;SDS011;35149;51.196;6.204;2024-01-15T04:42:42;11.73;;;8.95;;
49131;SDS011;35149;51.196;6.204;2024-01-15T04:45:11;15.30;;;9.55;;
49131;SDS011;35149;51.196;6.204;2024-01-15T04:47:43;10.95;;;9.13;;
49131;SDS011;35149;51.196;6.204;2024-01-15T04:50:12;13.52;;;8.05;;
49131;SDS011;35149;51.196;6.204;2024-01-15T04:52:42;11.95;;;7.53;;
49131;SDS011;35149;51.196;6.204;2024-01-15T04:55:09;11.73;;;7.70;;
49131;SDS011;35149;51.196;6.204;2024-01-15T04:57:41;10.35;;;7.72;;
49131;SDS011;35149;51.196;6.204;2024-01-15T05:00:08;9.13;;;6.55;;
49131;SDS011;35149;51.196;6.204;2024-01-15T05:02:35;13.80;;;7.40;;
49131;SDS011;35149;51.196;6.204;2024-01-15T05:05:02;11.07;;;6.22;;
49131;SDS011;35149;51.196;6.204;2024-01-15T05:07:28;9.95;;;6.03;;
49131;SDS011;35149;51.196;6.204;2024-01-15T05:09:55;11.13;;;6.47;;
49131;SDS011;35149;51.196;6.204;2024-01-15T05:12:22;9.27;;;7.03;;
49131;SDS011;35149;51.196;6.204;2024-01-15T05:14:51;13.45;;;8.35;;
49131;SDS011;35149;51.196;6.204;2024-01-15T05:17:22;14.23;;;8.70;;
49131;SDS011;35149;51.196;6.204;2024-01-15T05:19:50;14.00;;;9.17;;
49131;SDS011;35149;51.196;6.204;2024-01-15T05:22:18;11.88;;;9.57;;
49131;SDS011;35149;51.196;6.204;2024-01-15T05:24:47;13.60;;;9.40;;
49131;SDS011;35149;51.196;6.204;2024-01-15T05:27:14;12.88;;;8.38;;
49131;SDS011;35149;51.196;6.204;2024-01-15T05:29:41;10.73;;;7.90;;
49131;SDS011;35149;51.196;6.204;2024-01-15T05:32:07;10.50;;;8.20;;
49131;SDS011;35149;51.196;6.204;2024-01-15T05:34:34;12.68;;;7.10;;
49131;SDS011;35149;51.196;6.204;2024-01-15T05:37:01;14.18;;;8.45;;
49131;SDS011;35149;51.196;6.204;2024-01-15T05:39:28;10.40;;;7.95;;
49131;SDS011;35149;51.196;6.204;2024-01-15T05:41:54;10.65;;;6.57;;
49131;SDS011;35149;51.196;6.204;2024-01-15T05:44:21;9.20;;;6.88;;
49131;SDS011;35149;51.196;6.204;2024-01-15T05:46:48;12.93;;;8.10;;
49131;SDS011;35149;51.196;6.204;2024-01-15T05:49:14;10.57;;;7.13;;
49131;SDS011;35149;51.196;6.204;2024-01-15T05:51:44;10.27;;;7.32;;
49131;SDS011;35149;51.196;6.204;2024-01-15T05:54:11;9.50;;;7.35;;
49131;SDS011;35149;51.196;6.204;2024-01-15T05:56:37;11.00;;;8.43;;
49131;SDS011;35149;51.196;6.204;2024-01-15T05:59:04;11.00;;;8.25;;
49131;SDS011;35149;51.196;6.204;2024-01-15T06:01:31;15.38;;;9.43;;
49131;SDS011;35149;51.196;6.204;2024-01-15T06:03:58;12.88;;;9.75;;
49131;SDS011;35149;51.196;6.204;2024-01-15T06:06:25;13.10;;;8.93;;
49131;SDS011;35149;51.196;6.204;2024-01-15T06:08:55;11.93;;;8.25;;
49131;SDS011;35149;51.196;6.204;2024-01-15T06:11:29;12.07;;;8.55;;
49131;SDS011;35149;51.196;6.204;2024-01-15T06:13:56;14.05;;;9.07;;
49131;SDS011;35149;51.196;6.204;2024-01-15T06:16:23;13.38;;;8.80;;
49131;SDS011;35149;51.196;6.204;2024-01-15T06:18:50;13.38;;;8.70;;
49131;SDS011;35149;51.196;6.204;2024-01-15T06:21:17;12.43;;;8.32;;
49131;SDS011;35149;51.196;6.204;2024-01-15T06:23:43;13.13;;;8.63;;
49131;SDS011;35149;51.196;6.204;2024-01-15T06:26:13;14.05;;;8.48;;
49131;SDS011;35149;51.196;6.204;2024-01-15T06:28:40;12.10;;;8.38;;
49131;SDS011;35149;51.196;6.204;2024-01-15T06:31:07;14.95;;;9.50;;
49131;SDS011;35149;51.196;6.204;2024-01-15T06:33:34;17.35;;;9.48;;
49131;SDS011;35149;51.196;6.204;2024-01-15T06:36:03;17.27;;;10.38;;
49131;SDS011;35149;51.196;6.204;2024-01-15T06:38:31;20.25;;;10.07;;
49131;SDS011;35149;51.196;6.204;2024-01-15T06:40:58;14.88;;;9.15;;
49131;SDS011;35149;51.196;6.204;2024-01-15T06:43:25;13.52;;;8.80;;
49131;SDS011;35149;51.196;6.204;2024-01-15T06:45:53;14.85;;;8.63;;
49131;SDS011;35149;51.196;6.204;2024-01-15T06:48:19;14.52;;;8.63;;
49131;SDS011;35149;51.196;6.204;2024-01-15T06:50:46;14.02;;;8.73;;
49131;SDS011;35149;51.196;6.204;2024-01-15T06:53:13;13.50;;;8.00;;
49131;SDS011;35149;51.196;6.204;2024-01-15T06:55:40;12.27;;;7.55;;
49131;SDS011;35149;51.196;6.204;2024-01-15T06:58:06;12.50;;;8.70;;
49131;SDS011;35149;51.196;6.204;2024-01-15T07:00:36;11.32;;;7.70;;
49131;SDS011;35149;51.196;6.204;2024-01-15T07:03:06;10.55;;;7.15;;
49131;SDS011;35149;51.196;6.204;2024-01-15T07:05:33;14.63;;;9.18;;
49131;SDS011;35149;51.196;6.204;2024-01-15T07:08:00;13.43;;;8.07;;
49131;SDS011;35149;51.196;6.204;2024-01-15T07:10:27;12.85;;;7.85;;
49131;SDS011;35149;51.196;6.204;2024-01-15T07:12:53;13.25;;;8.75;;
49131;SDS011;35149;51.196;6.204;2024-01-15T07:15:20;11.40;;;8.27;;
49131;SDS011;35149;51.196;6.204;2024-01-15T07:17:47;13.70;;;9.05;;
49131;SDS011;35149;51.196;6.204;2024-01-15T07:20:14;15.35;;;9.00;;
49131;SDS011;35149;51.196;6.204;2024-01-15T07:22:41;12.57;;;9.05;;
49131;SDS011;35149;51.196;6.204;2024-01-15T07:25:08;12.82;;;9.13;;
49131;SDS011;35149;51.196;6.204;2024-01-15T07:27:35;13.93;;;9.50;;
49131;SDS011;35149;51.196;6.204;2024-01-15T07:30:02;12.02;;;9.27;;
49131;SDS011;35149;51.196;6.204;2024-01-15T07:32:32;17.83;;;11.02;;
49131;SDS011;35149;51.196;6.204;2024-01-15T07:34:59;16.33;;;10.98;;
49131;SDS011;35149;51.196;6.204;2024-01-15T07:37:26;17.63;;;11.20;;
49131;SDS011;35149;51.196;6.204;2024-01-15T07:39:53;17.85;;;11.15;;
49131;SDS011;35149;51.196;6.204;2024-01-15T07:42:20;16.83;;;11.70;;
49131;SDS011;35149;51.196;6.204;2024-01-15T07:44:47;18.73;;;11.85;;
49131;SDS011;35149;51.196;6.204;2024-01-15T07:47:13;17.33;;;11.15;;
49131;SDS011;35149;51.196;6.204;2024-01-15T07:49:40;15.48;;;10.60;;
49131;SDS011;35149;51.196;6.204;2024-01-15T07:52:07;14.13;;;10.60;;
49131;SDS011;35149;51.196;6.204;2024-01-15T07:54:34;15.32;;;10.20;;
49131;SDS011;35149;51.196;6.204;2024-01-15T07:57:01;19.13;;;11.88;;
49131;SDS011;35149;51.196;6.204;2024-01-15T07:59:29;15.15;;;10.35;;
49131;SDS011;35149;51.196;6.204;2024-01-15T08:01:57;18.05;;;10.93;;
49131;SDS011;35149;51.196;6.204;2024-01-15T08:04:25;17.13;;;11.30;;
49131;SDS011;35149;51.196;6.204;2024-01-15T08:06:52;14.25;;;10.10;;
49131;SDS011;35149;51.196;6.204;2024-01-15T08:09:25;12.55;;;9.88;;
49131;SDS011;35149;51.196;6.204;2024-01-15T08:11:52;14.55;;;10.25;;
49131;SDS011;35149;51.196;6.204;2024-01-15T08:14:18;18.70;;;10.95;;
49131;SDS011;35149;51.196;6.204;2024-01-15T08:16:45;17.13;;;10.88;;
49131;SDS011;35149;51.196;6.204;2024-01-15T08:19:16;18.15;;;11.25;;
49131;SDS011;35149;51.196;6.204;2024-01-15T08:21:43;16.13;;;11.25;;
49131;SDS011;35149;51.196;6.204;2024-01-15T08:24:10;16.90;;;11.20;;
49131;SDS011;35149;51.196;6.204;2024-01-15T08:26:36;18.70;;;11.57;;
49131;SDS011;35149;51.196;6.204;2024-01-15T08:29:03;16.73;;;11.18;;
49131;SDS011;35149;51.196;6.204;2024-01-15T08:31:30;18.58;;;11.93;;
49131;SDS011;35149;51.196;6.204;2024-01-15T08:33:57;19.05;;;13.90;;
49131;SDS011;35149;51.196;6.204;2024-01-15T08:36:25;21.23;;;14.55;;
49131;SDS011;35149;51.196;6.204;2024-01-15T08:38:52;20.30;;;14.80;;
49131;SDS011;35149;51.196;6.204;2024-01-15T08:41:19;21.92;;;16.30;;
49131;SDS011;35149;51.196;6.204;2024-01-15T08:43:45;22.75;;;16.55;;
49131;SDS011;35149;51.196;6.204;2024-01-15T08:46:13;18.65;;;14.13;;
49131;SDS011;35149;51.196;6.204;2024-01-15T08:48:39;15.98;;;11.85;;
49131;SDS011;35149;51.196;6.204;2024-01-15T08:51:07;14.43;;;10.65;;
49131;SDS011;35149;51.196;6.204;2024-01-15T08:53:37;12.98;;;9.15;;
49131;SDS011;35149;51.196;6.204;2024-01-15T08:56:04;12.52;;;9.45;;
49131;SDS011;35149;51.196;6.204;2024-01-15T08:58:32;9.80;;;8.45;;
49131;SDS011;35149;51.196;6.204;2024-01-15T09:00:58;10.80;;;8.15;;
49131;SDS011;35149;51.196;6.204;2024-01-15T09:03:26;11.48;;;7.95;;
49131;SDS011;35149;51.196;6.204;2024-01-15T09:05:53;8.90;;;7.10;;
49131;SDS011;35149;51.196;6.204;2024-01-15T09:08:20;10.77;;;7.28;;
49131;SDS011;35149;51.196;6.204;2024-01-15T09:10:47;8.80;;;6.55;;
49131;SDS011;35149;51.196;6.204;2024-01-15T09:13:14;11.05;;;7.20;;
49131;SDS011;35149;51.196;6.204;2024-01-15T09:15:43;7.60;;;5.47;;
49131;SDS011;35149;51.196;6.204;2024-01-15T09:18:10;7.47;;;5.60;;
49131;SDS011;35149;51.196;6.204;2024-01-15T09:20:37;5.88;;;4.85;;
49131;SDS011;35149;51.196;6.204;2024-01-15T09:23:04;5.72;;;4.88;;
49131;SDS011;35149;51.196;6.204;2024-01-15T09:25:32;5.75;;;4.35;;
49131;SDS011;35149;51.196;6.204;2024-01-15T09:27:58;6.00;;;4.75;;
49131;SDS011;35149;51.196;6.204;2024-01-15T09:30:25;4.05;;;3.53;;
49131;SDS011;35149;51.196;6.204;2024-01-15T09:32:52;4.60;;;2.92;;
49131;SDS011;35149;51.196;6.204;2024-01-15T09:35:19;3.85;;;3.35;;
49131;SDS011;35149;51.196;6.204;2024-01-15T09:37:49;4.07;;;2.80;;
49131;SDS011;35149;51.196;6.204;2024-01-15T09:40:16;4.22;;;3.08;;
49131;SDS011;35149;51.196;6.204;2024-01-15T09:42:44;4.53;;;3.58;;
49131;SDS011;35149;51.196;6.204;2024-01-15T09:45:12;3.67;;;2.88;;
49131;SDS011;35149;51.196;6.204;2024-01-15T09:47:40;4.10;;;3.15;;
49131;SDS011;35149;51.196;6.204;2024-01-15T09:50:11;4.07;;;3.30;;
49131;SDS011;35149;51.196;6.204;2024-01-15T09:52:39;5.88;;;3.47;;
49131;SDS011;35149;51.196;6.204;2024-01-15T09:55:07;3.95;;;2.80;;
49131;SDS011;35149;51.196;6.204;2024-01-15T09:57:36;3.47;;;2.38;;
49131;SDS011;35149;51.196;6.204;2024-01-15T10:00:03;2.60;;;2.40;;
49131;SDS011;35149;51.196;6.204;2024-01-15T10:02:32;1.63;;;1.52;;
49131;SDS011;35149;51.196;6.204;2024-01-15T10:05:00;2.72;;;1.70;;
49131;SDS011;35149;51.196;6.204;2024-01-15T10:07:26;1.50;;;1.40;;
49131;SDS011;35149;51.196;6.204;2024-01-15T10:09:55;2.00;;;1.30;;
49131;SDS011;35149;51.196;6.204;2024-01-15T10:12:22;2.47;;;1.65;;
49131;SDS011;35149;51.196;6.204;2024-01-15T10:14:50;2.28;;;1.27;;
49131;SDS011;35149;51.196;6.204;2024-01-15T10:17:17;2.15;;;0.85;;
49131;SDS011;35149;51.196;6.204;2024-01-15T10:19:47;2.25;;;1.17;;
49131;SDS011;35149;51.196;6.204;2024-01-15T10:22:16;1.98;;;1.40;;
49131;SDS011;35149;51.196;6.204;2024-01-15T10:24:44;2.13;;;1.48;;
49131;SDS011;35149;51.196;6.204;2024-01-15T10:27:13;2.10;;;1.25;;
49131;SDS011;35149;51.196;6.204;2024-01-15T10:29:40;1.55;;;1.42;;
49131;SDS011;35149;51.196;6.204;2024-01-15T10:32:11;1.63;;;1.42;;
49131;SDS011;35149;51.196;6.204;2024-01-15T10:34:38;2.55;;;1.40;;
49131;SDS011;35149;51.196;6.204;2024-01-15T10:37:08;2.22;;;1.75;;
49131;SDS011;35149;51.196;6.204;2024-01-15T10:39:35;1.83;;;1.50;;
49131;SDS011;35149;51.196;6.204;2024-01-15T10:42:03;4.63;;;2.83;;
49131;SDS011;35149;51.196;6.204;2024-01-15T10:44:30;4.30;;;3.63;;
49131;SDS011;35149;51.196;6.204;2024-01-15T10:46:58;4.38;;;3.97;;
49131;SDS011;35149;51.196;6.204;2024-01-15T10:49:24;5.30;;;4.65;;
49131;SDS011;35149;51.196;6.204;2024-01-15T10:52:00;6.25;;;5.65;;
49131;SDS011;35149;51.196;6.204;2024-01-15T10:54:28;5.70;;;4.70;;
49131;SDS011;35149;51.196;6.204;2024-01-15T10:56:56;5.38;;;4.15;;
49131;SDS011;35149;51.196;6.204;2024-01-15T10:59:23;4.32;;;3.92;;
49131;SDS011;35149;51.196;6.204;2024-01-15T11:01:50;6.93;;;3.97;;
49131;SDS011;35149;51.196;6.204;2024-01-15T11:04:22;4.22;;;3.75;;
49131;SDS011;35149;51.196;6.204;2024-01-15T11:06:51;4.63;;;4.13;;
49131;SDS011;35149;51.196;6.204;2024-01-15T11:09:21;3.88;;;3.17;;
49131;SDS011;35149;51.196;6.204;2024-01-15T11:11:52;4.32;;;3.92;;
49131;SDS011;35149;51.196;6.204;2024-01-15T11:14:35;3.63;;;3.30;;
49131;SDS011;35149;51.196;6.204;2024-01-15T11:17:05;3.53;;;2.95;;
49131;SDS011;35149;51.196;6.204;2024-01-15T11:19:36;3.80;;;3.13;;
49131;SDS011;35149;51.196;6.204;2024-01-15T11:22:10;4.70;;;3.30;;
49131;SDS011;35149;51.196;6.204;2024-01-15T11:25:03;4.95;;;4.10;;
49131;SDS011;35149;51.196;6.204;2024-01-15T11:27:40;10.35;;;7.22;;
49131;SDS011;35149;51.196;6.204;2024-01-15T11:30:11;9.68;;;7.78;;
49131;SDS011;35149;51.196;6.204;2024-01-15T11:32:39;9.07;;;6.93;;
49131;SDS011;35149;51.196;6.204;2024-01-15T11:35:10;11.60;;;8.15;;
49131;SDS011;35149;51.196;6.204;2024-01-15T11:40:19;9.90;;;7.50;;
49131;SDS011;35149;51.196;6.204;2024-01-15T11:42:48;11.35;;;8.43;;
49131;SDS011;35149;51.196;6.204;2024-01-15T11:45:16;10.90;;;8.15;;
49131;SDS011;35149;51.196;6.204;2024-01-15T11:53:32;8.43;;;6.82;;
49131;SDS011;35149;51.196;6.204;2024-01-15T11:56:03;9.25;;;6.63;;
49131;SDS011;35149;51.196;6.204;2024-01-15T11:58:37;8.10;;;5.55;;
49131;SDS011;35149;51.196;6.204;2024-01-15T12:01:04;6.45;;;5.65;;
49131;SDS011;35149;51.196;6.204;2024-01-15T12:03:32;5.57;;;4.93;;
49131;SDS011;35149;51.196;6.204;2024-01-15T12:06:07;6.28;;;5.28;;
49131;SDS011;35149;51.196;6.204;2024-01-15T12:08:36;7.55;;;5.43;;
49131;SDS011;35149;51.196;6.204;2024-01-15T12:13:43;6.78;;;4.57;;
49131;SDS011;35149;51.196;6.204;2024-01-15T12:16:09;5.15;;;3.85;;
49131;SDS011;35149;51.196;6.204;2024-01-15T12:18:39;7.63;;;4.28;;
49131;SDS011;35149;51.196;6.204;2024-01-15T12:21:09;5.20;;;4.05;;
49131;SDS011;35149;51.196;6.204;2024-01-15T12:23:38;4.60;;;3.08;;
49131;SDS011;35149;51.196;6.204;2024-01-15T12:26:05;5.22;;;3.00;;
49131;SDS011;35149;51.196;6.204;2024-01-15T12:28:32;3.97;;;3.22;;
49131;SDS011;35149;51.196;6.204;2024-01-15T12:30:59;4.72;;;2.50;;
49131;SDS011;35149;51.196;6.204;2024-01-15T12:33:27;5.45;;;3.15;;
49131;SDS011;35149;51.196;6.204;2024-01-15T12:35:54;3.08;;;2.72;;
49131;SDS011;35149;51.196;6.204;2024-01-15T12:38:23;4.93;;;2.95;;
49131;SDS011;35149;51.196;6.204;2024-01-15T12:40:51;6.32;;;2.67;;
49131;SDS011;35149;51.196;6.204;2024-01-15T12:43:18;5.05;;;2.65;;
49131;SDS011;35149;51.196;6.204;2024-01-15T12:45:46;4.63;;;2.22;;
49131;SDS011;35149;51.196;6.204;2024-01-15T12:48:14;2.25;;;2.05;;
49131;SDS011;35149;51.196;6.204;2024-01-15T12:50:44;3.80;;;2.17;;
49131;SDS011;35149;51.196;6.204;2024-01-15T12:53:11;2.80;;;1.95;;
49131;SDS011;35149;51.196;6.204;2024-01-15T12:55:38;2.65;;;2.10;;
49131;SDS011;35149;51.196;6.204;2024-01-15T12:58:05;2.72;;;1.88;;
49131;SDS011;35149;51.196;6.204;2024-01-15T13:00:33;1.63;;;1.52;;
49131;SDS011;35149;51.196;6.204;2024-01-15T13:03:01;1.42;;;1.33;;
49131;SDS011;35149;51.196;6.204;2024-01-15T13:05:29;2.20;;;2.00;;
49131;SDS011;35149;51.196;6.204;2024-01-15T13:07:59;3.58;;;1.92;;
49131;SDS011;35149;51.196;6.204;2024-01-15T13:10:26;3.47;;;2.33;;
49131;SDS011;35149;51.196;6.204;2024-01-15T13:12:56;2.60;;;2.28;;
49131;SDS011;35149;51.196;6.204;2024-01-15T13:15:22;2.38;;;2.17;;
49131;SDS011;35149;51.196;6.204;2024-01-15T13:17:51;4.60;;;2.53;;
49131;SDS011;35149;51.196;6.204;2024-01-15T13:20:18;3.47;;;2.10;;
49131;SDS011;35149;51.196;6.204;2024-01-15T13:22:45;2.33;;;2.20;;
49131;SDS011;35149;51.196;6.204;2024-01-15T13:25:12;3.03;;;2.05;;
49131;SDS011;35149;51.196;6.204;2024-01-15T13:27:38;2.17;;;2.08;;
49131;SDS011;35149;51.196;6.204;2024-01-15T13:30:10;2.40;;;2.25;;
49131;SDS011;35149;51.196;6.204;2024-01-15T13:32:37;2.90;;;1.85;;
49131;SDS011;35149;51.196;6.204;2024-01-15T13:35:04;2.65;;;1.85;;
49131;SDS011;35149;51.196;6.204;2024-01-15T13:37:36;1.90;;;1.50;;
49131;SDS011;35149;51.196;6.204;2024-01-15T13:40:14;1.23;;;1.13;;
49131;SDS011;35149;51.196;6.204;2024-01-15T13:42:46;1.25;;;1.15;;
49131;SDS011;35149;51.196;6.204;2024-01-15T13:45:13;1.45;;;1.35;;
49131;SDS011;35149;51.196;6.204;2024-01-15T13:47:43;1.33;;;1.13;;
49131;SDS011;35149;51.196;6.204;2024-01-15T13:50:13;3.47;;;1.70;;
49131;SDS011;35149;51.196;6.204;2024-01-15T13:52:42;1.20;;;1.20;;
49131;SDS011;35149;51.196;6.204;2024-01-15T13:55:11;1.38;;;1.27;;
49131;SDS011;35149;51.196;6.204;2024-01-15T13:57:38;2.72;;;1.48;;
49131;SDS011;35149;51.196;6.204;2024-01-15T14:00:08;1.67;;;1.58;;
49131;SDS011;35149;51.196;6.204;2024-01-15T14:02:39;1.40;;;1.20;;
49131;SDS011;35149;51.196;6.204;2024-01-15T14:05:05;1.67;;;1.17;;
49131;SDS011;35149;51.196;6.204;2024-01-15T14:07:32;2.25;;;1.33;;
49131;SDS011;35149;51.196;6.204;2024-01-15T14:09:59;1.77;;;1.60;;
49131;SDS011;35149;51.196;6.204;2024-01-15T14:12:26;2.78;;;1.70;;
49131;SDS011;35149;51.196;6.204;2024-01-15T14:14:53;2.63;;;2.15;;
49131;SDS011;35149;51.196;6.204;2024-01-15T14:17:24;2.45;;;1.95;;
49131;SDS011;35149;51.196;6.204;2024-01-15T14:19:51;3.75;;;1.95;;
49131;SDS011;35149;51.196;6.204;2024-01-15T14:22:28;2.03;;;1.90;;
49131;SDS011;35149;51.196;6.204;2024-01-15T14:24:56;2.13;;;1.90;;
49131;SDS011;35149;51.196;6.204;2024-01-15T14:27:23;2.05;;;1.85;;
49131;SDS011;35149;51.196;6.204;2024-01-15T14:29:52;4.25;;;2.05;;
49131;SDS011;35149;51.196;6.204;2024-01-15T14:32:20;2.20;;;1.88;;
49131;SDS011;35149;51.196;6.204;2024-01-15T14:34:48;1.52;;;1.42;;
49131;SDS011;35149;51.196;6.204;2024-01-15T14:37:15;2.67;;;1.77;;
49131;SDS011;35149;51.196;6.204;2024-01-15T14:39:45;1.75;;;1.60;;
49131;SDS011;35149;51.196;6.204;2024-01-15T14:42:14;1.50;;;1.40;;
49131;SDS011;35149;51.196;6.204;2024-01-15T14:44:41;1.83;;;1.65;;
49131;SDS011;35149;51.196;6.204;2024-01-15T14:47:10;2.13;;;1.92;;
49131;SDS011;35149;51.196;6.204;2024-01-15T14:49:37;1.95;;;1.83;;
49131;SDS011;35149;51.196;6.204;2024-01-15T14:52:04;1.08;;;0.98;;